sensor_id;sensor_type;location;lat;lon;timestamp;temperature;humidity
24800;DHT22;12897;50.812;4.430;2022-08-21T00:00:21;16.90;99.90
24800;DHT22;12897;50.812;4.430;2022-08-21T00:02:51;16.70;99.90
24800;DHT22;12897;50.812;4.430;2022-08-21T00:05:19;16.60;99.90
24800;DHT22;12897;50.812;4.430;2022-08-21T00:07:47;16.60;99.90
24800;DHT22;12897;50.812;4.430;2022-08-21T00:10:17;16.50;99.90
24800;DHT22;12897;50.812;4.430;2022-08-21T00:12:45;16.40;99.90
24800;DHT22;12897;50.812;4.430;2022-08-21T00:15:17;16.40;99.90
24800;DHT22;12897;50.812;4.430;2022-08-21T00:17:44;16.30;99.90
24800;DHT22;12897;50.812;4.430;2022-08-21T00:20:13;16.30;99.90
24800;DHT22;12897;50.812;4.430;2022-08-21T00:22:42;16.30;99.90
24800;DHT22;12897;50.812;4.430;2022-08-21T00:25:11;16.40;99.90
24800;DHT22;12897;50.812;4.430;2022-08-21T00:27:39;16.50;99.90
24800;DHT22;12897;50.812;4.430;2022-08-21T00:30:10;16.50;99.90
24800;DHT22;12897;50.812;4.430;2022-08-21T00:32:40;16.50;99.90
24800;DHT22;12897;50.812;4.430;2022-08-21T00:35:11;16.40;99.90
24800;DHT22;12897;50.812;4.430;2022-08-21T00:37:40;16.30;99.90
24800;DHT22;12897;50.812;4.430;2022-08-21T00:40:11;16.40;99.90
24800;DHT22;12897;50.812;4.430;2022-08-21T00:42:38;16.30;99.90
24800;DHT22;12897;50.812;4.430;2022-08-21T00:45:07;16.30;99.90
24800;DHT22;12897;50.812;4.430;2022-08-21T00:47:37;16.30;99.90
24800;DHT22;12897;50.812;4.430;2022-08-21T00:50:07;16.30;99.90
24800;DHT22;12897;50.812;4.430;2022-08-21T00:52:36;16.30;99.90
24800;DHT22;12897;50.812;4.430;2022-08-21T00:55:06;16.20;99.90
24800;DHT22;12897;50.812;4.430;2022-08-21T00:57:45;16.20;99.90
24800;DHT22;12897;50.812;4.430;2022-08-21T01:00:17;16.30;99.90
24800;DHT22;12897;50.812;4.430;2022-08-21T01:02:44;16.20;99.90
24800;DHT22;12897;50.812;4.430;2022-08-21T01:05:13;16.20;99.90
24800;DHT22;12897;50.812;4.430;2022-08-21T01:07:41;16.10;99.90
24800;DHT22;12897;50.812;4.430;2022-08-21T01:10:13;16.10;99.90
24800;DHT22;12897;50.812;4.430;2022-08-21T01:12:42;16.00;99.90
24800;DHT22;12897;50.812;4.430;2022-08-21T01:15:11;16.00;99.90
24800;DHT22;12897;50.812;4.430;2022-08-21T01:17:40;16.00;99.90
24800;DHT22;12897;50.812;4.430;2022-08-21T01:20:10;16.10;99.90
24800;DHT22;12897;50.812;4.430;2022-08-21T01:22:38;16.00;99.90
24800;DHT22;12897;50.812;4.430;2022-08-21T01:25:07;16.10;99.90
24800;DHT22;12897;50.812;4.430;2022-08-21T01:27:37;16.10;99.90
24800;DHT22;12897;50.812;4.430;2022-08-21T01:30:17;16.10;99.90
24800;DHT22;12897;50.812;4.430;2022-08-21T01:32:35;16.10;99.90
24800;DHT22;12897;50.812;4.430;2022-08-21T01:35:04;16.00;99.90
24800;DHT22;12897;50.812;4.430;2022-08-21T01:37:32;15.90;99.90
24800;DHT22;12897;50.812;4.430;2022-08-21T01:40:00;15.90;99.90
24800;DHT22;12897;50.812;4.430;2022-08-21T01:42:29;15.90;99.90
24800;DHT22;12897;50.812;4.430;2022-08-21T01:44:57;15.90;99.90
24800;DHT22;12897;50.812;4.430;2022-08-21T01:47:26;15.80;99.90
24800;DHT22;12897;50.812;4.430;2022-08-21T01:49:54;15.70;99.90
24800;DHT22;12897;50.812;4.430;2022-08-21T01:52:21;15.80;99.90
24800;DHT22;12897;50.812;4.430;2022-08-21T01:54:49;15.90;99.90
24800;DHT22;12897;50.812;4.430;2022-08-21T01:57:17;15.80;99.90
24800;DHT22;12897;50.812;4.430;2022-08-21T01:59:45;15.80;99.90
24800;DHT22;12897;50.812;4.430;2022-08-21T02:02:12;15.70;99.90
24800;DHT22;12897;50.812;4.430;2022-08-21T02:04:40;15.70;99.90
24800;DHT22;12897;50.812;4.430;2022-08-21T02:07:07;15.70;99.90
24800;DHT22;12897;50.812;4.430;2022-08-21T02:09:35;15.60;99.90
24800;DHT22;12897;50.812;4.430;2022-08-21T02:12:04;15.60;99.90
24800;DHT22;12897;50.812;4.430;2022-08-21T02:14:32;15.60;99.90
24800;DHT22;12897;50.812;4.430;2022-08-21T02:17:00;15.50;99.90
24800;DHT22;12897;50.812;4.430;2022-08-21T02:19:30;15.50;99.90
24800;DHT22;12897;50.812;4.430;2022-08-21T02:21:57;15.50;99.90
24800;DHT22;12897;50.812;4.430;2022-08-21T02:24:25;15.40;99.90
24800;DHT22;12897;50.812;4.430;2022-08-21T02:26:53;15.40;99.90
24800;DHT22;12897;50.812;4.430;2022-08-21T02:29:23;15.40;99.90
24800;DHT22;12897;50.812;4.430;2022-08-21T02:31:51;15.40;99.90
24800;DHT22;12897;50.812;4.430;2022-08-21T02:34:19;15.20;99.90
24800;DHT22;12897;50.812;4.430;2022-08-21T02:36:47;15.20;99.90
24800;DHT22;12897;50.812;4.430;2022-08-21T02:39:17;15.20;99.90
24800;DHT22;12897;50.812;4.430;2022-08-21T02:41:46;15.30;99.90
24800;DHT22;12897;50.812;4.430;2022-08-21T02:44:15;15.40;99.90
24800;DHT22;12897;50.812;4.430;2022-08-21T02:46:43;15.50;99.90
24800;DHT22;12897;50.812;4.430;2022-08-21T02:49:10;15.40;99.90
24800;DHT22;12897;50.812;4.430;2022-08-21T02:51:38;15.30;99.90
24800;DHT22;12897;50.812;4.430;2022-08-21T02:54:07;15.20;99.90
24800;DHT22;12897;50.812;4.430;2022-08-21T02:56:35;15.20;99.90
24800;DHT22;12897;50.812;4.430;2022-08-21T02:59:04;15.30;99.90
24800;DHT22;12897;50.812;4.430;2022-08-21T03:01:32;15.30;99.90
24800;DHT22;12897;50.812;4.430;2022-08-21T03:03:59;15.30;99.90
24800;DHT22;12897;50.812;4.430;2022-08-21T03:06:27;15.30;99.90
24800;DHT22;12897;50.812;4.430;2022-08-21T03:08:56;15.40;99.90
24800;DHT22;12897;50.812;4.430;2022-08-21T03:11:24;15.40;99.90
24800;DHT22;12897;50.812;4.430;2022-08-21T03:13:53;15.30;99.90
24800;DHT22;12897;50.812;4.430;2022-08-21T03:16:20;15.40;99.90
24800;DHT22;12897;50.812;4.430;2022-08-21T03:18:48;15.30;99.90
24800;DHT22;12897;50.812;4.430;2022-08-21T03:21:16;15.20;99.90
24800;DHT22;12897;50.812;4.430;2022-08-21T03:23:45;15.10;99.90
24800;DHT22;12897;50.812;4.430;2022-08-21T03:26:15;15.20;99.90
24800;DHT22;12897;50.812;4.430;2022-08-21T03:28:44;15.20;99.90
24800;DHT22;12897;50.812;4.430;2022-08-21T03:31:11;15.20;99.90
24800;DHT22;12897;50.812;4.430;2022-08-21T03:33:39;15.10;99.90
24800;DHT22;12897;50.812;4.430;2022-08-21T03:36:07;15.10;99.90
24800;DHT22;12897;50.812;4.430;2022-08-21T03:38:37;15.10;99.90
24800;DHT22;12897;50.812;4.430;2022-08-21T03:41:05;15.00;99.90
24800;DHT22;12897;50.812;4.430;2022-08-21T03:43:33;15.10;99.90
24800;DHT22;12897;50.812;4.430;2022-08-21T03:46:04;15.10;99.90
24800;DHT22;12897;50.812;4.430;2022-08-21T03:48:32;15.10;99.90
24800;DHT22;12897;50.812;4.430;2022-08-21T03:51:00;15.00;99.90
24800;DHT22;12897;50.812;4.430;2022-08-21T03:53:30;14.90;99.90
24800;DHT22;12897;50.812;4.430;2022-08-21T03:55:57;14.90;99.90
24800;DHT22;12897;50.812;4.430;2022-08-21T03:58:27;15.00;99.90
24800;DHT22;12897;50.812;4.430;2022-08-21T04:00:56;14.90;99.90
24800;DHT22;12897;50.812;4.430;2022-08-21T04:03:24;15.00;99.90
24800;DHT22;12897;50.812;4.430;2022-08-21T04:05:53;14.90;99.90
24800;DHT22;12897;50.812;4.430;2022-08-21T04:08:21;15.00;99.90
24800;DHT22;12897;50.812;4.430;2022-08-21T04:10:51;15.00;99.90
24800;DHT22;12897;50.812;4.430;2022-08-21T04:13:20;15.00;99.90
24800;DHT22;12897;50.812;4.430;2022-08-21T04:15:48;14.90;99.90
24800;DHT22;12897;50.812;4.430;2022-08-21T04:18:16;14.90;99.90
24800;DHT22;12897;50.812;4.430;2022-08-21T04:20:46;14.90;99.90
24800;DHT22;12897;50.812;4.430;2022-08-21T04:23:14;14.90;99.90
24800;DHT22;12897;50.812;4.430;2022-08-21T04:25:42;14.90;99.90
24800;DHT22;12897;50.812;4.430;2022-08-21T04:28:10;15.00;99.90
24800;DHT22;12897;50.812;4.430;2022-08-21T04:30:37;15.10;99.90
24800;DHT22;12897;50.812;4.430;2022-08-21T04:33:10;15.00;99.90
24800;DHT22;12897;50.812;4.430;2022-08-21T04:35:34;15.00;99.90
24800;DHT22;12897;50.812;4.430;2022-08-21T04:38:02;15.00;99.90
24800;DHT22;12897;50.812;4.430;2022-08-21T04:40:30;14.90;99.90
24800;DHT22;12897;50.812;4.430;2022-08-21T04:43:01;14.80;99.90
24800;DHT22;12897;50.812;4.430;2022-08-21T04:45:38;14.80;99.90
24800;DHT22;12897;50.812;4.430;2022-08-21T04:48:08;14.90;99.90
24800;DHT22;12897;50.812;4.430;2022-08-21T04:53:07;15.00;99.90
24800;DHT22;12897;50.812;4.430;2022-08-21T04:55:36;15.00;99.90
24800;DHT22;12897;50.812;4.430;2022-08-21T04:58:06;14.90;99.90
24800;DHT22;12897;50.812;4.430;2022-08-21T05:00:35;14.90;99.90
24800;DHT22;12897;50.812;4.430;2022-08-21T05:03:05;15.00;99.90
24800;DHT22;12897;50.812;4.430;2022-08-21T05:05:34;15.00;99.90
24800;DHT22;12897;50.812;4.430;2022-08-21T05:08:03;15.10;99.90
24800;DHT22;12897;50.812;4.430;2022-08-21T05:10:32;15.00;99.90
24800;DHT22;12897;50.812;4.430;2022-08-21T05:13:00;14.90;99.90
24800;DHT22;12897;50.812;4.430;2022-08-21T05:15:27;15.00;99.90
24800;DHT22;12897;50.812;4.430;2022-08-21T05:17:57;15.00;99.90
24800;DHT22;12897;50.812;4.430;2022-08-21T05:20:24;15.10;99.90
24800;DHT22;12897;50.812;4.430;2022-08-21T05:22:52;15.10;99.90
24800;DHT22;12897;50.812;4.430;2022-08-21T05:25:20;15.10;99.90
24800;DHT22;12897;50.812;4.430;2022-08-21T05:27:52;15.10;99.90
24800;DHT22;12897;50.812;4.430;2022-08-21T05:30:16;15.10;99.90
24800;DHT22;12897;50.812;4.430;2022-08-21T05:32:44;15.10;99.90
24800;DHT22;12897;50.812;4.430;2022-08-21T05:35:14;15.20;99.90
24800;DHT22;12897;50.812;4.430;2022-08-21T05:37:42;15.30;99.90
24800;DHT22;12897;50.812;4.430;2022-08-21T05:40:10;15.50;99.90
24800;DHT22;12897;50.812;4.430;2022-08-21T05:42:39;15.70;99.90
24800;DHT22;12897;50.812;4.430;2022-08-21T05:45:07;15.80;99.90
24800;DHT22;12897;50.812;4.430;2022-08-21T05:47:35;15.90;99.90
24800;DHT22;12897;50.812;4.430;2022-08-21T05:50:03;16.20;99.90
24800;DHT22;12897;50.812;4.430;2022-08-21T05:52:31;16.60;99.90
24800;DHT22;12897;50.812;4.430;2022-08-21T05:54:59;17.00;99.90
24800;DHT22;12897;50.812;4.430;2022-08-21T05:57:27;17.30;99.90
24800;DHT22;12897;50.812;4.430;2022-08-21T05:59:55;17.70;99.90
24800;DHT22;12897;50.812;4.430;2022-08-21T06:02:25;18.00;99.90
24800;DHT22;12897;50.812;4.430;2022-08-21T06:04:53;18.30;99.90
24800;DHT22;12897;50.812;4.430;2022-08-21T06:07:22;18.60;99.90
24800;DHT22;12897;50.812;4.430;2022-08-21T06:09:49;18.80;99.90
24800;DHT22;12897;50.812;4.430;2022-08-21T06:12:19;19.00;99.90
24800;DHT22;12897;50.812;4.430;2022-08-21T06:14:49;19.20;99.90
24800;DHT22;12897;50.812;4.430;2022-08-21T06:17:26;19.30;99.90
24800;DHT22;12897;50.812;4.430;2022-08-21T06:19:55;19.60;99.90
24800;DHT22;12897;50.812;4.430;2022-08-21T06:22:22;19.50;99.90
24800;DHT22;12897;50.812;4.430;2022-08-21T06:24:54;19.70;99.90
24800;DHT22;12897;50.812;4.430;2022-08-21T06:27:27;20.00;99.90
24800;DHT22;12897;50.812;4.430;2022-08-21T06:29:54;20.20;99.90
24800;DHT22;12897;50.812;4.430;2022-08-21T06:32:25;20.30;99.90
24800;DHT22;12897;50.812;4.430;2022-08-21T06:34:54;20.40;99.90
24800;DHT22;12897;50.812;4.430;2022-08-21T06:37:21;20.30;99.90
24800;DHT22;12897;50.812;4.430;2022-08-21T06:39:49;20.20;99.90
24800;DHT22;12897;50.812;4.430;2022-08-21T06:42:17;20.00;99.90
24800;DHT22;12897;50.812;4.430;2022-08-21T06:44:47;19.90;99.90
24800;DHT22;12897;50.812;4.430;2022-08-21T06:47:15;19.90;99.90
24800;DHT22;12897;50.812;4.430;2022-08-21T06:49:42;20.00;99.90
24800;DHT22;12897;50.812;4.430;2022-08-21T06:52:11;20.20;99.90
24800;DHT22;12897;50.812;4.430;2022-08-21T06:54:40;20.30;99.90
24800;DHT22;12897;50.812;4.430;2022-08-21T06:57:08;20.50;99.90
24800;DHT22;12897;50.812;4.430;2022-08-21T06:59:36;20.50;99.90
24800;DHT22;12897;50.812;4.430;2022-08-21T07:02:03;20.50;99.90
24800;DHT22;12897;50.812;4.430;2022-08-21T07:04:31;20.30;99.90
24800;DHT22;12897;50.812;4.430;2022-08-21T07:06:58;20.10;99.90
24800;DHT22;12897;50.812;4.430;2022-08-21T07:09:26;20.20;99.90
24800;DHT22;12897;50.812;4.430;2022-08-21T07:11:58;20.10;99.90
24800;DHT22;12897;50.812;4.430;2022-08-21T07:14:26;20.20;99.90
24800;DHT22;12897;50.812;4.430;2022-08-21T07:16:54;20.40;99.90
24800;DHT22;12897;50.812;4.430;2022-08-21T07:19:21;20.40;99.90
24800;DHT22;12897;50.812;4.430;2022-08-21T07:21:49;20.30;99.90
24800;DHT22;12897;50.812;4.430;2022-08-21T07:24:17;20.40;99.90
24800;DHT22;12897;50.812;4.430;2022-08-21T07:26:45;20.50;99.90
24800;DHT22;12897;50.812;4.430;2022-08-21T07:29:17;20.40;99.90
24800;DHT22;12897;50.812;4.430;2022-08-21T07:31:45;20.50;99.90
24800;DHT22;12897;50.812;4.430;2022-08-21T07:34:18;20.50;99.90
24800;DHT22;12897;50.812;4.430;2022-08-21T07:36:46;20.30;99.90
24800;DHT22;12897;50.812;4.430;2022-08-21T07:39:14;20.30;99.90
24800;DHT22;12897;50.812;4.430;2022-08-21T07:41:43;20.20;99.90
24800;DHT22;12897;50.812;4.430;2022-08-21T07:44:10;20.40;99.90
24800;DHT22;12897;50.812;4.430;2022-08-21T07:46:38;20.60;99.90
24800;DHT22;12897;50.812;4.430;2022-08-21T07:49:05;20.60;99.90
24800;DHT22;12897;50.812;4.430;2022-08-21T07:51:36;20.70;99.90
24800;DHT22;12897;50.812;4.430;2022-08-21T07:54:05;20.70;99.90
24800;DHT22;12897;50.812;4.430;2022-08-21T07:56:34;20.80;99.90
24800;DHT22;12897;50.812;4.430;2022-08-21T07:59:03;20.80;99.90
24800;DHT22;12897;50.812;4.430;2022-08-21T08:01:31;20.90;99.90
24800;DHT22;12897;50.812;4.430;2022-08-21T08:03:59;21.10;99.90
24800;DHT22;12897;50.812;4.430;2022-08-21T08:06:28;20.90;99.90
24800;DHT22;12897;50.812;4.430;2022-08-21T08:08:56;20.70;99.90
24800;DHT22;12897;50.812;4.430;2022-08-21T08:11:23;20.80;99.90
24800;DHT22;12897;50.812;4.430;2022-08-21T08:13:52;20.70;99.90
24800;DHT22;12897;50.812;4.430;2022-08-21T08:16:20;20.70;99.90
24800;DHT22;12897;50.812;4.430;2022-08-21T08:18:47;20.60;99.90
24800;DHT22;12897;50.812;4.430;2022-08-21T08:21:15;20.70;99.90
24800;DHT22;12897;50.812;4.430;2022-08-21T08:23:46;20.50;99.90
24800;DHT22;12897;50.812;4.430;2022-08-21T08:26:14;20.50;99.90
24800;DHT22;12897;50.812;4.430;2022-08-21T08:28:43;20.70;99.90
24800;DHT22;12897;50.812;4.430;2022-08-21T08:31:22;20.60;99.90
24800;DHT22;12897;50.812;4.430;2022-08-21T08:33:50;20.70;99.90
24800;DHT22;12897;50.812;4.430;2022-08-21T08:36:18;20.70;99.90
24800;DHT22;12897;50.812;4.430;2022-08-21T08:38:46;20.70;99.90
24800;DHT22;12897;50.812;4.430;2022-08-21T08:41:19;20.70;99.90
24800;DHT22;12897;50.812;4.430;2022-08-21T08:43:53;20.80;99.90
24800;DHT22;12897;50.812;4.430;2022-08-21T08:46:26;20.90;99.90
24800;DHT22;12897;50.812;4.430;2022-08-21T08:48:59;20.90;99.90
24800;DHT22;12897;50.812;4.430;2022-08-21T08:51:34;21.10;99.90
24800;DHT22;12897;50.812;4.430;2022-08-21T08:54:04;21.30;99.90
24800;DHT22;12897;50.812;4.430;2022-08-21T08:56:35;21.20;99.90
24800;DHT22;12897;50.812;4.430;2022-08-21T08:59:56;21.10;99.90
24800;DHT22;12897;50.812;4.430;2022-08-21T09:01:57;21.00;99.90
24800;DHT22;12897;50.812;4.430;2022-08-21T09:04:26;21.00;99.90
24800;DHT22;12897;50.812;4.430;2022-08-21T09:13:03;21.10;99.90
24800;DHT22;12897;50.812;4.430;2022-08-21T09:18:54;21.20;99.90
24800;DHT22;12897;50.812;4.430;2022-08-21T09:24:17;21.60;99.90
24800;DHT22;12897;50.812;4.430;2022-08-21T09:26:54;21.50;99.90
24800;DHT22;12897;50.812;4.430;2022-08-21T09:29:23;21.60;99.90
24800;DHT22;12897;50.812;4.430;2022-08-21T09:31:53;21.80;99.90
24800;DHT22;12897;50.812;4.430;2022-08-21T09:34:29;21.80;99.90
24800;DHT22;12897;50.812;4.430;2022-08-21T09:36:58;21.90;99.90
24800;DHT22;12897;50.812;4.430;2022-08-21T09:39:37;22.00;99.90
24800;DHT22;12897;50.812;4.430;2022-08-21T09:42:07;22.10;99.90
24800;DHT22;12897;50.812;4.430;2022-08-21T09:44:40;22.10;99.90
24800;DHT22;12897;50.812;4.430;2022-08-21T09:47:11;22.50;99.90
24800;DHT22;12897;50.812;4.430;2022-08-21T09:49:43;22.90;99.90
24800;DHT22;12897;50.812;4.430;2022-08-21T09:52:23;22.90;99.90
24800;DHT22;12897;50.812;4.430;2022-08-21T09:54:50;22.90;99.90
24800;DHT22;12897;50.812;4.430;2022-08-21T09:57:30;23.00;99.90
24800;DHT22;12897;50.812;4.430;2022-08-21T10:00:15;22.70;99.90
24800;DHT22;12897;50.812;4.430;2022-08-21T10:02:41;22.70;99.90
24800;DHT22;12897;50.812;4.430;2022-08-21T10:05:21;22.80;99.90
24800;DHT22;12897;50.812;4.430;2022-08-21T10:07:49;23.00;99.90
24800;DHT22;12897;50.812;4.430;2022-08-21T10:10:23;22.90;99.90
24800;DHT22;12897;50.812;4.430;2022-08-21T10:13:15;23.10;99.90
24800;DHT22;12897;50.812;4.430;2022-08-21T10:21:07;22.60;99.90
24800;DHT22;12897;50.812;4.430;2022-08-21T10:26:16;22.70;99.90
24800;DHT22;12897;50.812;4.430;2022-08-21T10:28:40;22.70;99.90
24800;DHT22;12897;50.812;4.430;2022-08-21T10:31:13;22.80;99.90
24800;DHT22;12897;50.812;4.430;2022-08-21T10:39:39;22.80;99.90
24800;DHT22;12897;50.812;4.430;2022-08-21T10:47:49;23.40;99.90
24800;DHT22;12897;50.812;4.430;2022-08-21T10:56:02;23.20;99.90
24800;DHT22;12897;50.812;4.430;2022-08-21T11:04:34;23.80;99.90
24800;DHT22;12897;50.812;4.430;2022-08-21T11:07:07;23.90;99.90
24800;DHT22;12897;50.812;4.430;2022-08-21T11:09:36;23.80;99.90
24800;DHT22;12897;50.812;4.430;2022-08-21T11:12:24;23.90;99.90
24800;DHT22;12897;50.812;4.430;2022-08-21T11:15:11;24.10;99.90
24800;DHT22;12897;50.812;4.430;2022-08-21T11:17:52;24.20;99.90
24800;DHT22;12897;50.812;4.430;2022-08-21T11:20:38;24.20;99.90
24800;DHT22;12897;50.812;4.430;2022-08-21T11:22:54;24.10;99.90
24800;DHT22;12897;50.812;4.430;2022-08-21T11:25:35;24.20;99.90
24800;DHT22;12897;50.812;4.430;2022-08-21T11:28:20;24.40;99.90
24800;DHT22;12897;50.812;4.430;2022-08-21T11:33:38;24.70;99.90
24800;DHT22;12897;50.812;4.430;2022-08-21T11:36:20;24.50;99.90
24800;DHT22;12897;50.812;4.430;2022-08-21T11:38:55;24.30;99.90
24800;DHT22;12897;50.812;4.430;2022-08-21T11:41:37;23.90;99.90
24800;DHT22;12897;50.812;4.430;2022-08-21T11:47:10;23.90;99.90
24800;DHT22;12897;50.812;4.430;2022-08-21T11:49:44;23.90;99.90
24800;DHT22;12897;50.812;4.430;2022-08-21T11:52:23;23.90;99.90
24800;DHT22;12897;50.812;4.430;2022-08-21T11:57:27;24.30;99.90
24800;DHT22;12897;50.812;4.430;2022-08-21T12:00:05;24.30;99.90
24800;DHT22;12897;50.812;4.430;2022-08-21T12:02:34;24.30;99.90
24800;DHT22;12897;50.812;4.430;2022-08-21T12:05:10;24.50;99.90
24800;DHT22;12897;50.812;4.430;2022-08-21T12:07:41;24.80;99.90
24800;DHT22;12897;50.812;4.430;2022-08-21T12:10:17;24.70;99.90
24800;DHT22;12897;50.812;4.430;2022-08-21T12:12:48;24.40;99.90
24800;DHT22;12897;50.812;4.430;2022-08-21T12:15:23;24.70;99.90
24800;DHT22;12897;50.812;4.430;2022-08-21T12:18:01;24.80;99.90
24800;DHT22;12897;50.812;4.430;2022-08-21T12:20:44;24.60;99.90
24800;DHT22;12897;50.812;4.430;2022-08-21T12:23:18;24.70;99.90
24800;DHT22;12897;50.812;4.430;2022-08-21T12:26:01;24.70;99.90
24800;DHT22;12897;50.812;4.430;2022-08-21T12:28:29;24.60;99.90
24800;DHT22;12897;50.812;4.430;2022-08-21T12:30:58;24.70;99.90
24800;DHT22;12897;50.812;4.430;2022-08-21T12:33:32;24.70;99.90
24800;DHT22;12897;50.812;4.430;2022-08-21T12:39:03;24.70;99.90
24800;DHT22;12897;50.812;4.430;2022-08-21T12:41:34;24.70;99.90
24800;DHT22;12897;50.812;4.430;2022-08-21T12:44:08;24.60;99.90
24800;DHT22;12897;50.812;4.430;2022-08-21T12:46:59;25.10;99.90
24800;DHT22;12897;50.812;4.430;2022-08-21T12:49:39;25.60;99.90
24800;DHT22;12897;50.812;4.430;2022-08-21T12:52:24;26.00;99.90
24800;DHT22;12897;50.812;4.430;2022-08-21T12:54:59;25.90;99.90
24800;DHT22;12897;50.812;4.430;2022-08-21T12:57:23;25.10;99.90
24800;DHT22;12897;50.812;4.430;2022-08-21T13:00:01;24.80;99.90
24800;DHT22;12897;50.812;4.430;2022-08-21T13:02:31;24.40;99.90
24800;DHT22;12897;50.812;4.430;2022-08-21T13:05:03;24.60;99.90
24800;DHT22;12897;50.812;4.430;2022-08-21T13:07:32;24.60;99.90
24800;DHT22;12897;50.812;4.430;2022-08-21T13:10:04;24.70;99.90
24800;DHT22;12897;50.812;4.430;2022-08-21T13:12:32;24.60;99.90
24800;DHT22;12897;50.812;4.430;2022-08-21T13:15:03;24.60;99.90
24800;DHT22;12897;50.812;4.430;2022-08-21T13:17:34;24.70;99.90
24800;DHT22;12897;50.812;4.430;2022-08-21T13:20:06;24.90;99.90
24800;DHT22;12897;50.812;4.430;2022-08-21T13:22:40;25.00;99.90
24800;DHT22;12897;50.812;4.430;2022-08-21T13:25:09;24.90;99.90
24800;DHT22;12897;50.812;4.430;2022-08-21T13:27:36;24.60;99.90
24800;DHT22;12897;50.812;4.430;2022-08-21T13:30:07;24.80;99.90
24800;DHT22;12897;50.812;4.430;2022-08-21T13:32:41;25.00;99.90
24800;DHT22;12897;50.812;4.430;2022-08-21T13:35:13;25.00;99.90
24800;DHT22;12897;50.812;4.430;2022-08-21T13:37:41;24.70;99.90
24800;DHT22;12897;50.812;4.430;2022-08-21T13:40:29;24.60;99.90
24800;DHT22;12897;50.812;4.430;2022-08-21T13:42:56;24.80;99.90
24800;DHT22;12897;50.812;4.430;2022-08-21T13:45:26;24.70;99.90
24800;DHT22;12897;50.812;4.430;2022-08-21T13:47:55;24.80;99.90
24800;DHT22;12897;50.812;4.430;2022-08-21T13:50:24;24.80;99.90
24800;DHT22;12897;50.812;4.430;2022-08-21T13:53:05;24.80;99.90
24800;DHT22;12897;50.812;4.430;2022-08-21T13:55:43;24.80;99.90
24800;DHT22;12897;50.812;4.430;2022-08-21T13:58:11;24.90;99.90
24800;DHT22;12897;50.812;4.430;2022-08-21T14:00:47;24.90;99.90
24800;DHT22;12897;50.812;4.430;2022-08-21T14:03:33;25.00;99.90
24800;DHT22;12897;50.812;4.430;2022-08-21T14:06:02;25.10;99.90
24800;DHT22;12897;50.812;4.430;2022-08-21T14:08:35;25.20;99.90
24800;DHT22;12897;50.812;4.430;2022-08-21T14:11:05;25.10;99.90
24800;DHT22;12897;50.812;4.430;2022-08-21T14:16:13;24.90;99.90
24800;DHT22;12897;50.812;4.430;2022-08-21T14:18:49;25.00;99.90
24800;DHT22;12897;50.812;4.430;2022-08-21T14:24:07;24.90;99.90
24800;DHT22;12897;50.812;4.430;2022-08-21T14:26:42;24.50;99.90
24800;DHT22;12897;50.812;4.430;2022-08-21T14:29:07;24.50;99.90
24800;DHT22;12897;50.812;4.430;2022-08-21T14:31:35;24.60;99.90
24800;DHT22;12897;50.812;4.430;2022-08-21T14:34:03;24.70;99.90
24800;DHT22;12897;50.812;4.430;2022-08-21T14:36:31;24.60;99.90
24800;DHT22;12897;50.812;4.430;2022-08-21T14:38:58;24.70;99.90
24800;DHT22;12897;50.812;4.430;2022-08-21T14:41:27;24.70;99.90
24800;DHT22;12897;50.812;4.430;2022-08-21T14:43:55;25.10;99.90
24800;DHT22;12897;50.812;4.430;2022-08-21T14:46:26;25.40;99.90
24800;DHT22;12897;50.812;4.430;2022-08-21T14:48:54;25.20;99.90
24800;DHT22;12897;50.812;4.430;2022-08-21T14:51:21;25.00;99.90
24800;DHT22;12897;50.812;4.430;2022-08-21T14:53:49;24.90;99.90
24800;DHT22;12897;50.812;4.430;2022-08-21T14:56:17;24.90;99.90
24800;DHT22;12897;50.812;4.430;2022-08-21T14:58:48;25.00;99.90
24800;DHT22;12897;50.812;4.430;2022-08-21T15:01:17;25.00;99.90
24800;DHT22;12897;50.812;4.430;2022-08-21T15:03:45;25.10;99.90
24800;DHT22;12897;50.812;4.430;2022-08-21T15:06:15;25.20;99.90
24800;DHT22;12897;50.812;4.430;2022-08-21T15:08:44;25.40;99.90
24800;DHT22;12897;50.812;4.430;2022-08-21T15:11:16;25.70;99.90
24800;DHT22;12897;50.812;4.430;2022-08-21T15:13:44;26.10;99.90
24800;DHT22;12897;50.812;4.430;2022-08-21T15:16:13;25.80;99.90
24800;DHT22;12897;50.812;4.430;2022-08-21T15:18:41;25.50;99.90
24800;DHT22;12897;50.812;4.430;2022-08-21T15:21:09;25.60;99.90
24800;DHT22;12897;50.812;4.430;2022-08-21T15:23:37;25.80;99.90
24800;DHT22;12897;50.812;4.430;2022-08-21T15:26:04;25.90;99.90
24800;DHT22;12897;50.812;4.430;2022-08-21T15:28:34;26.10;99.90
24800;DHT22;12897;50.812;4.430;2022-08-21T15:31:03;26.20;99.90
24800;DHT22;12897;50.812;4.430;2022-08-21T15:33:31;26.40;99.90
24800;DHT22;12897;50.812;4.430;2022-08-21T15:35:59;26.50;99.90
24800;DHT22;12897;50.812;4.430;2022-08-21T15:38:27;26.40;99.90
24800;DHT22;12897;50.812;4.430;2022-08-21T15:40:54;25.80;99.90
24800;DHT22;12897;50.812;4.430;2022-08-21T15:43:25;25.60;99.90
24800;DHT22;12897;50.812;4.430;2022-08-21T15:45:54;25.50;99.90
24800;DHT22;12897;50.812;4.430;2022-08-21T15:48:24;25.50;99.90
24800;DHT22;12897;50.812;4.430;2022-08-21T15:50:51;25.70;99.90
24800;DHT22;12897;50.812;4.430;2022-08-21T15:53:20;25.40;99.90
24800;DHT22;12897;50.812;4.430;2022-08-21T15:55:48;25.30;99.90
24800;DHT22;12897;50.812;4.430;2022-08-21T15:58:16;25.30;99.90
24800;DHT22;12897;50.812;4.430;2022-08-21T16:00:47;25.20;99.90
24800;DHT22;12897;50.812;4.430;2022-08-21T16:03:19;25.20;99.90
24800;DHT22;12897;50.812;4.430;2022-08-21T16:05:49;25.10;99.90
24800;DHT22;12897;50.812;4.430;2022-08-21T16:08:20;25.30;99.90
24800;DHT22;12897;50.812;4.430;2022-08-21T16:10:49;25.60;99.90
24800;DHT22;12897;50.812;4.430;2022-08-21T16:13:27;25.60;99.90
24800;DHT22;12897;50.812;4.430;2022-08-21T16:15:50;25.60;99.90
24800;DHT22;12897;50.812;4.430;2022-08-21T16:18:19;25.50;99.90
24800;DHT22;12897;50.812;4.430;2022-08-21T16:20:47;25.50;99.90
24800;DHT22;12897;50.812;4.430;2022-08-21T16:23:14;25.60;99.90
24800;DHT22;12897;50.812;4.430;2022-08-21T16:25:42;25.60;99.90
24800;DHT22;12897;50.812;4.430;2022-08-21T16:28:14;25.70;99.90
24800;DHT22;12897;50.812;4.430;2022-08-21T16:30:47;25.80;99.90
24800;DHT22;12897;50.812;4.430;2022-08-21T16:33:33;26.00;99.90
24800;DHT22;12897;50.812;4.430;2022-08-21T16:36:02;25.90;99.90
24800;DHT22;12897;50.812;4.430;2022-08-21T16:38:33;25.80;99.90
24800;DHT22;12897;50.812;4.430;2022-08-21T16:41:03;25.70;99.90
24800;DHT22;12897;50.812;4.430;2022-08-21T16:43:32;25.50;99.90
24800;DHT22;12897;50.812;4.430;2022-08-21T16:46:02;25.30;99.90
24800;DHT22;12897;50.812;4.430;2022-08-21T16:48:31;25.10;99.90
24800;DHT22;12897;50.812;4.430;2022-08-21T16:50:59;25.10;99.90